Time;durP1;ratioP1;P1;durP2;ratioP2;P2;SDS_P1;SDS_P2;PMS_P1;PMS_P2;Temp;Humidity;BMP_temperature;BMP_pressure;BME280_temperature;BME280_humidity;BME280_pressure;Samples;Min_cycle;Max_cycle;Signal;HPM_P1;HPM_P2
2021/03/18 00:00:51;;;;;;;6.45;4.22;;;3.90;99.90;;;;;;2084703;28;20582;-78
2021/03/18 00:01:51;;;;;;;7.00;4.40;;;3.90;99.90;;;;;;2090874;28;20025;-79
2021/03/18 00:02:52;;;;;;;7.22;4.63;;;3.80;99.90;;;;;;2084234;28;20021;-80
2021/03/18 00:03:53;;;;;;;8.48;4.65;;;3.90;99.90;;;;;;2084929;28;20036;-81
2021/03/18 00:04:54;;;;;;;7.03;4.85;;;3.90;99.90;;;;;;2085126;28;20064;-80
2021/03/18 00:05:55;;;;;;;9.48;4.90;;;3.80;99.90;;;;;;2084371;28;20037;-80
2021/03/18 00:06:56;;;;;;;7.15;4.57;;;3.80;99.90;;;;;;2081846;28;20087;-79
2021/03/18 00:07:57;;;;;;;7.90;4.88;;;3.80;99.90;;;;;;2077634;28;20096;-77
2021/03/18 00:08:58;;;;;;;8.02;4.53;;;3.80;99.90;;;;;;2083404;28;20099;-80
2021/03/18 00:09:59;;;;;;;6.63;4.35;;;3.80;99.90;;;;;;2080545;28;20033;-80
2021/03/18 00:11:01;;;;;;;6.43;5.00;;;3.70;99.90;;;;;;2083774;28;20359;-79
2021/03/18 00:12:02;;;;;;;6.13;4.45;;;3.80;99.90;;;;;;2086327;28;20030;-79
2021/03/18 00:13:05;;;;;;;8.05;4.35;;;3.70;99.90;;;;;;2080339;28;20089;-78
2021/03/18 00:14:08;;;;;;;5.68;4.80;;;3.70;99.90;;;;;;2079658;28;20034;-78
2021/03/18 00:15:10;;;;;;;5.05;4.43;;;3.70;99.90;;;;;;2076949;28;20557;-79
2021/03/18 00:16:11;;;;;;;8.38;4.55;;;3.70;99.90;;;;;;2074150;28;20052;-79
2021/03/18 00:17:12;;;;;;;6.82;4.60;;;3.70;99.90;;;;;;2072987;28;20080;-77
2021/03/18 00:18:18;;;;;;;6.70;4.65;;;3.70;99.90;;;;;;2080698;28;20022;-77
2021/03/18 00:19:19;;;;;;;8.65;4.60;;;3.70;99.90;;;;;;2080745;28;20017;-78
2021/03/18 00:20:20;;;;;;;6.68;4.60;;;3.60;99.90;;;;;;2078508;28;20022;-77
2021/03/18 00:21:22;;;;;;;7.00;4.10;;;3.60;99.90;;;;;;2077020;28;20022;-78
2021/03/18 00:22:22;;;;;;;5.88;4.22;;;3.60;99.90;;;;;;2077666;28;20441;-80
2021/03/18 00:23:23;;;;;;;5.05;4.45;;;3.60;99.90;;;;;;2074216;28;20112;-79
2021/03/18 00:24:24;;;;;;;9.23;4.35;;;3.60;99.90;;;;;;2085578;28;20033;-78
2021/03/18 00:25:25;;;;;;;7.93;5.28;;;3.60;99.90;;;;;;2082245;28;20306;-78
2021/03/18 00:26:31;;;;;;;5.53;4.35;;;3.60;99.90;;;;;;2079973;28;20022;-78
2021/03/18 00:27:32;;;;;;;7.35;4.22;;;3.50;99.90;;;;;;2087759;28;20033;-79
2021/03/18 00:28:33;;;;;;;8.23;5.03;;;3.50;99.90;;;;;;2079860;28;20037;-78
2021/03/18 00:29:34;;;;;;;5.10;4.38;;;3.50;99.90;;;;;;2088245;28;20664;-78
2021/03/18 00:30:34;;;;;;;6.40;4.40;;;3.50;99.90;;;;;;2088463;28;20037;-79
2021/03/18 00:31:36;;;;;;;8.63;5.10;;;3.50;99.90;;;;;;2088508;28;20117;-79
2021/03/18 00:32:37;;;;;;;5.07;4.57;;;3.50;99.90;;;;;;2084024;28;20390;-79
2021/03/18 00:33:38;;;;;;;7.95;4.63;;;3.50;99.90;;;;;;2075956;28;20040;-78
2021/03/18 00:34:38;;;;;;;5.95;4.40;;;3.50;99.90;;;;;;2091385;28;20040;-78
2021/03/18 00:35:39;;;;;;;6.10;4.22;;;3.40;99.90;;;;;;2086804;28;20049;-78
2021/03/18 00:36:40;;;;;;;9.60;5.10;;;3.40;99.90;;;;;;2082909;28;20461;-78
2021/03/18 00:37:42;;;;;;;6.78;4.85;;;3.40;99.90;;;;;;2080974;28;20034;-77
2021/03/18 00:38:43;;;;;;;7.90;4.68;;;3.40;99.90;;;;;;2083478;28;20071;-78
2021/03/18 00:39:44;;;;;;;6.63;4.70;;;3.40;99.90;;;;;;2083610;28;20104;-78
2021/03/18 00:40:51;;;;;;;7.20;4.70;;;3.40;99.90;;;;;;2082257;28;20456;-78
2021/03/18 00:41:52;;;;;;;6.00;4.88;;;3.40;99.90;;;;;;2083388;28;20018;-78
2021/03/18 00:43:05;;;;;;;5.90;4.53;;;3.40;99.90;;;;;;2090802;28;20055;-78
2021/03/18 00:44:06;;;;;;;9.13;4.95;;;3.30;99.90;;;;;;2091520;28;20029;-78
2021/03/18 00:45:07;;;;;;;4.95;4.45;;;3.30;99.90;;;;;;2091496;28;20017;-78
2021/03/18 00:46:08;;;;;;;11.05;4.93;;;3.30;99.90;;;;;;2083204;28;20036;-78
2021/03/18 00:47:09;;;;;;;6.35;4.50;;;3.30;99.90;;;;;;2089778;28;20028;-78
2021/03/18 00:48:11;;;;;;;5.93;4.45;;;3.30;99.90;;;;;;2090451;28;20490;-78
2021/03/18 00:49:12;;;;;;;10.50;4.30;;;3.30;99.90;;;;;;2088875;28;20589;-78
2021/03/18 00:50:39;;;;;;;5.28;4.32;;;3.30;99.90;;;;;;2085578;28;20029;-78
2021/03/18 00:51:40;;;;;;;9.93;4.32;;;3.20;99.90;;;;;;2091360;28;20388;-78
2021/03/18 00:52:41;;;;;;;6.18;4.38;;;3.20;99.90;;;;;;2086655;28;20120;-78
2021/03/18 00:53:45;;;;;;;7.65;4.32;;;3.20;99.90;;;;;;2087012;28;20066;-78
2021/03/18 00:54:46;;;;;;;7.60;4.60;;;3.20;99.90;;;;;;2079949;28;20060;-79
2021/03/18 00:55:47;;;;;;;7.68;4.15;;;3.20;99.90;;;;;;2088108;28;20113;-79
2021/03/18 00:56:47;;;;;;;7.82;4.63;;;3.20;99.90;;;;;;2087048;28;20021;-79
2021/03/18 00:57:48;;;;;;;6.82;5.03;;;3.20;99.90;;;;;;2088160;28;20417;-79
2021/03/18 00:58:49;;;;;;;4.35;3.50;;;3.20;99.90;;;;;;2085972;28;20025;-79
2021/03/18 00:59:50;;;;;;;12.95;4.95;;;3.20;99.90;;;;;;2081428;28;20498;-79
2021/03/18 01:00:53;;;;;;;10.25;4.90;;;3.20;99.90;;;;;;2087698;28;20054;-79
2021/03/18 01:01:54;;;;;;;7.55;4.22;;;3.20;99.90;;;;;;2087698;28;20021;-79
2021/03/18 01:02:55;;;;;;;7.70;4.70;;;3.20;99.90;;;;;;2087625;28;20094;-79
2021/03/18 01:03:56;;;;;;;6.25;4.47;;;3.20;99.90;;;;;;2087195;28;20029;-79
2021/03/18 01:04:57;;;;;;;8.02;4.63;;;3.10;99.90;;;;;;2090120;28;20515;-80
2021/03/18 01:06:17;;;;;;;6.25;4.78;;;3.10;99.90;;;;;;2091497;28;20500;-78
2021/03/18 01:07:18;;;;;;;6.85;4.10;;;3.10;99.90;;;;;;2076760;28;20088;-79
2021/03/18 01:08:23;;;;;;;7.95;4.80;;;3.10;99.90;;;;;;2075943;28;20029;-79
2021/03/18 01:09:24;;;;;;;8.90;4.57;;;3.10;99.90;;;;;;2087869;28;20039;-79
2021/03/18 01:10:28;;;;;;;10.50;5.20;;;3.10;99.90;;;;;;2087588;28;20119;-79
2021/03/18 01:11:33;;;;;;;8.20;5.25;;;3.10;99.90;;;;;;2087336;28;20492;-78
2021/03/18 01:12:34;;;;;;;6.20;4.22;;;3.10;99.90;;;;;;2087276;28;20055;-79
2021/03/18 01:13:37;;;;;;;6.80;4.95;;;3.10;99.90;;;;;;2087762;28;20056;-79
2021/03/18 01:14:37;;;;;;;6.32;4.35;;;3.10;99.90;;;;;;2087530;28;20141;-79
2021/03/18 01:15:38;;;;;;;5.35;4.38;;;3.00;99.90;;;;;;2087280;28;20539;-78
2021/03/18 01:16:49;;;;;;;5.45;3.97;;;3.10;99.90;;;;;;2088037;28;20439;-78
2021/03/18 01:17:50;;;;;;;8.55;4.80;;;3.10;99.90;;;;;;2079101;28;20692;-78
2021/03/18 01:18:52;;;;;;;9.60;4.40;;;3.10;99.90;;;;;;2082112;28;20029;-78
2021/03/18 01:19:52;;;;;;;7.63;4.40;;;3.00;99.90;;;;;;2091129;28;20028;-79
2021/03/18 01:20:54;;;;;;;7.72;4.82;;;3.00;99.90;;;;;;2083335;28;20044;-79
2021/03/18 01:21:56;;;;;;;6.85;4.65;;;3.00;99.90;;;;;;2084623;28;20036;-78
2021/03/18 01:22:57;;;;;;;8.02;4.90;;;3.00;99.90;;;;;;2083450;28;20017;-78
2021/03/18 01:23:59;;;;;;;7.90;4.75;;;3.00;99.90;;;;;;2093139;28;20029;-79
2021/03/18 01:24:59;;;;;;;6.45;4.47;;;3.00;99.90;;;;;;2085251;28;20081;-77
2021/03/18 01:26:00;;;;;;;7.38;4.32;;;3.00;99.90;;;;;;2092494;28;20029;-78
2021/03/18 01:27:01;;;;;;;7.65;4.47;;;3.00;99.90;;;;;;2092623;28;20039;-80
2021/03/18 01:28:02;;;;;;;10.13;5.75;;;3.00;99.90;;;;;;2092609;28;20033;-79
2021/03/18 01:29:03;;;;;;;5.80;4.43;;;3.00;99.90;;;;;;2092006;28;20121;-81
2021/03/18 01:30:09;;;;;;;6.40;4.63;;;3.00;99.90;;;;;;2092526;28;20025;-78
2021/03/18 01:31:11;;;;;;;9.00;4.72;;;3.00;99.90;;;;;;2092217;28;20028;-78
2021/03/18 01:32:12;;;;;;;7.18;4.35;;;3.00;99.90;;;;;;2092884;28;20033;-79
2021/03/18 01:33:12;;;;;;;7.63;4.28;;;3.00;99.90;;;;;;2090580;28;20064;-78
2021/03/18 01:34:13;;;;;;;7.55;4.65;;;3.00;99.90;;;;;;2084054;28;20034;-78
2021/03/18 01:35:19;;;;;;;6.43;4.38;;;3.00;99.90;;;;;;2082315;28;20026;-78
2021/03/18 01:36:22;;;;;;;8.48;4.80;;;3.00;99.90;;;;;;2081832;28;20022;-78
2021/03/18 01:37:22;;;;;;;7.28;4.97;;;3.00;99.90;;;;;;2077119;28;20033;-78
2021/03/18 01:38:23;;;;;;;5.28;4.45;;;3.00;99.90;;;;;;2078778;28;20232;-79
2021/03/18 01:39:24;;;;;;;7.57;4.88;;;3.00;99.90;;;;;;2087579;28;20025;-79
2021/03/18 01:40:29;;;;;;;8.00;4.88;;;3.00;99.90;;;;;;2086801;28;20091;-79
2021/03/18 01:41:30;;;;;;;6.53;4.50;;;3.00;99.90;;;;;;2079696;28;20028;-79
2021/03/18 01:42:30;;;;;;;6.55;4.57;;;3.00;99.90;;;;;;2086660;28;20107;-80
2021/03/18 01:43:32;;;;;;;6.03;4.75;;;3.00;99.90;;;;;;2089883;28;20441;-78
2021/03/18 01:44:33;;;;;;;9.32;4.78;;;3.00;99.90;;;;;;2090086;28;20488;-78
2021/03/18 01:45:34;;;;;;;5.85;4.97;;;3.00;99.90;;;;;;2088645;28;20029;-79
2021/03/18 01:46:35;;;;;;;8.20;4.65;;;3.00;99.90;;;;;;2083032;28;20115;-79
2021/03/18 01:47:37;;;;;;;6.03;4.47;;;3.00;99.90;;;;;;2086854;28;20512;-79
2021/03/18 01:48:39;;;;;;;6.82;4.70;;;3.00;99.90;;;;;;2091221;28;20021;-77
2021/03/18 01:49:39;;;;;;;9.77;4.47;;;3.00;99.90;;;;;;2084876;28;20126;-80
2021/03/18 01:50:40;;;;;;;6.75;5.13;;;3.00;99.90;;;;;;2084438;28;20026;-78
2021/03/18 01:51:41;;;;;;;8.35;5.15;;;3.00;99.90;;;;;;2083266;28;20033;-78
2021/03/18 01:52:42;;;;;;;6.85;4.50;;;3.00;99.90;;;;;;2082825;28;20502;-78
2021/03/18 01:53:43;;;;;;;6.18;4.57;;;3.00;99.90;;;;;;2091168;28;20027;-78
2021/03/18 01:54:44;;;;;;;7.95;4.85;;;3.00;99.90;;;;;;2083211;28;20099;-78
2021/03/18 01:55:46;;;;;;;7.43;5.10;;;3.00;99.90;;;;;;2075495;28;20537;-79
2021/03/18 01:56:47;;;;;;;9.05;4.45;;;3.00;99.90;;;;;;2084879;28;20025;-78
2021/03/18 01:57:48;;;;;;;7.32;4.43;;;3.00;99.90;;;;;;2085916;28;20030;-80
2021/03/18 01:58:49;;;;;;;5.53;4.45;;;2.90;99.90;;;;;;2083844;28;20029;-78
2021/03/18 01:59:50;;;;;;;5.22;4.13;;;3.00;99.90;;;;;;2083434;28;20072;-78
2021/03/18 02:00:54;;;;;;;6.07;4.65;;;3.00;99.90;;;;;;2082033;28;20137;-78
2021/03/18 02:01:55;;;;;;;7.63;4.53;;;3.00;99.90;;;;;;2077317;28;20036;-79
2021/03/18 02:02:59;;;;;;;8.05;4.45;;;3.00;99.90;;;;;;2072920;28;20026;-79
2021/03/18 02:04:02;;;;;;;7.22;4.03;;;3.00;99.90;;;;;;2088814;28;20083;-79
2021/03/18 02:05:04;;;;;;;8.40;4.47;;;3.00;99.90;;;;;;2089758;28;20033;-78
2021/03/18 02:06:06;;;;;;;9.18;4.50;;;3.00;99.90;;;;;;2083484;28;20029;-77
2021/03/18 02:07:07;;;;;;;5.75;4.15;;;3.00;99.90;;;;;;2086931;28;20034;-77
2021/03/18 02:08:08;;;;;;;5.40;4.07;;;3.00;99.90;;;;;;2092068;28;20029;-78
2021/03/18 02:09:09;;;;;;;9.15;3.85;;;3.00;99.90;;;;;;2072350;28;20026;-80
2021/03/18 02:10:10;;;;;;;6.38;4.03;;;3.00;99.90;;;;;;2085342;28;20444;-81
2021/03/18 02:11:10;;;;;;;6.65;4.20;;;3.00;99.90;;;;;;2088367;28;20055;-78
2021/03/18 02:12:11;;;;;;;6.68;4.22;;;3.00;99.90;;;;;;2086159;28;20071;-78
2021/03/18 02:13:14;;;;;;;7.25;4.47;;;3.00;99.90;;;;;;2083258;28;20025;-78
2021/03/18 02:14:15;;;;;;;6.25;4.18;;;3.00;99.90;;;;;;2080909;28;20025;-80
2021/03/18 02:15:17;;;;;;;9.15;4.38;;;3.00;99.90;;;;;;2083156;28;20115;-82
2021/03/18 02:16:17;;;;;;;7.80;3.97;;;3.00;99.90;;;;;;2087789;28;20025;-80
2021/03/18 02:17:53;;;;;;;7.55;4.40;;;3.00;99.90;;;;;;2086947;28;20013;-79
2021/03/18 02:19:40;;;;;;;6.78;4.18;;;3.00;99.90;;;;;;2088604;28;20039;-78
2021/03/18 02:21:13;;;;;;;9.35;4.22;;;2.90;99.90;;;;;;2087386;28;20021;-78
2021/03/18 02:22:35;;;;;;;4.72;3.88;;;2.90;99.90;;;;;;2083188;28;20036;-78
2021/03/18 02:24:01;;;;;;;8.07;4.45;;;2.90;99.90;;;;;;2080844;28;20576;-78
2021/03/18 02:25:23;;;;;;;5.97;3.72;;;2.90;99.90;;;;;;2085128;28;20047;-78
2021/03/18 02:26:42;;;;;;;9.45;4.63;;;2.80;99.90;;;;;;2088407;28;20027;-78
2021/03/18 02:28:00;;;;;;;6.78;4.15;;;2.80;99.90;;;;;;2090479;28;20100;-78
2021/03/18 02:29:28;;;;;;;7.00;4.35;;;2.80;99.90;;;;;;2093680;28;20021;-79
2021/03/18 02:30:45;;;;;;;9.43;4.05;;;2.80;99.90;;;;;;2086066;28;20025;-78
2021/03/18 02:32:00;;;;;;;5.60;4.22;;;2.80;99.90;;;;;;2088402;28;20017;-78
2021/03/18 02:33:42;;;;;;;6.47;4.10;;;2.80;99.90;;;;;;2094721;28;20027;-78
2021/03/18 02:35:10;;;;;;;5.00;3.85;;;2.80;99.90;;;;;;2083066;28;20064;-78
2021/03/18 02:36:12;;;;;;;5.50;3.92;;;2.80;99.90;;;;;;2089110;28;20021;-78
2021/03/18 02:37:14;;;;;;;7.22;3.83;;;2.80;99.90;;;;;;2087253;28;20025;-78
2021/03/18 02:38:41;;;;;;;8.63;3.85;;;2.80;99.90;;;;;;2094864;28;20052;-78
2021/03/18 02:39:55;;;;;;;6.60;3.83;;;2.80;99.90;;;;;;2094721;28;20116;-78
2021/03/18 02:41:30;;;;;;;5.53;4.00;;;2.80;99.90;;;;;;2092616;28;20093;-78
2021/03/18 02:42:36;;;;;;;8.75;4.65;;;2.70;99.90;;;;;;2082049;28;20106;-77
2021/03/18 02:43:48;;;;;;;6.60;3.75;;;2.70;99.90;;;;;;2083924;28;20053;-78
2021/03/18 02:44:52;;;;;;;7.68;3.60;;;2.70;99.90;;;;;;2091082;28;20080;-80
2021/03/18 02:45:57;;;;;;;6.50;4.03;;;2.70;99.90;;;;;;2087458;28;20472;-80
2021/03/18 02:47:09;;;;;;;7.00;4.45;;;2.70;99.90;;;;;;2080554;28;20449;-78
2021/03/18 02:48:17;;;;;;;5.25;3.75;;;2.70;99.90;;;;;;2086280;28;20021;-78
2021/03/18 02:49:19;;;;;;;7.22;3.83;;;2.70;99.90;;;;;;2078861;28;20028;-78
2021/03/18 02:50:21;;;;;;;5.57;3.92;;;2.80;99.90;;;;;;2081805;28;20025;-78
2021/03/18 02:51:25;;;;;;;6.53;4.63;;;2.80;99.90;;;;;;2086294;28;20073;-78
2021/03/18 02:52:29;;;;;;;9.68;4.85;;;2.70;99.90;;;;;;2082582;28;20463;-80
2021/03/18 02:53:33;;;;;;;6.05;4.72;;;2.70;99.90;;;;;;2085741;28;20119;-80
2021/03/18 02:54:37;;;;;;;6.47;4.40;;;2.70;99.90;;;;;;2077880;28;20146;-80
2021/03/18 02:55:43;;;;;;;9.98;4.20;;;2.70;99.90;;;;;;2072231;28;20029;-79
2021/03/18 02:56:46;;;;;;;5.97;3.78;;;2.70;99.90;;;;;;2077559;28;20515;-80
2021/03/18 02:57:48;;;;;;;4.80;4.20;;;2.70;99.90;;;;;;2088009;28;20381;-79
2021/03/18 02:58:52;;;;;;;9.52;4.30;;;2.70;99.90;;;;;;2087141;28;20521;-80
2021/03/18 02:59:54;;;;;;;6.85;4.07;;;2.70;99.90;;;;;;2080107;28;20495;-80
2021/03/18 03:00:57;;;;;;;5.45;4.00;;;2.70;99.90;;;;;;2081576;28;20048;-80
2021/03/18 03:02:02;;;;;;;6.50;3.85;;;2.70;99.90;;;;;;2088802;28;20025;-79
2021/03/18 03:03:05;;;;;;;8.82;4.07;;;2.70;99.90;;;;;;2081093;28;20033;-79
2021/03/18 03:04:06;;;;;;;4.50;3.67;;;2.70;99.90;;;;;;2088335;28;20039;-80
2021/03/18 03:05:09;;;;;;;7.20;4.00;;;2.70;99.90;;;;;;2075859;28;20030;-78
2021/03/18 03:06:12;;;;;;;6.72;4.05;;;2.70;99.90;;;;;;2081619;28;20057;-78
2021/03/18 03:07:17;;;;;;;6.60;4.15;;;2.70;99.90;;;;;;2081695;28;20029;-79
2021/03/18 03:08:20;;;;;;;8.52;4.07;;;2.70;99.90;;;;;;2076924;28;20120;-78
2021/03/18 03:09:21;;;;;;;6.00;4.13;;;2.70;99.90;;;;;;2081883;28;20025;-78
2021/03/18 03:10:23;;;;;;;9.45;4.38;;;2.70;99.90;;;;;;2081914;28;20026;-79
2021/03/18 03:11:25;;;;;;;9.43;5.00;;;2.70;99.90;;;;;;2081367;28;20045;-78
2021/03/18 03:12:30;;;;;;;10.88;3.95;;;2.70;99.90;;;;;;2081780;28;20068;-80
2021/03/18 03:13:35;;;;;;;5.85;4.20;;;2.70;99.90;;;;;;2082137;28;20063;-80
2021/03/18 03:14:40;;;;;;;14.77;4.82;;;2.70;99.90;;;;;;2090382;28;20440;-79
2021/03/18 03:15:43;;;;;;;6.18;3.70;;;2.70;99.90;;;;;;2082529;28;20032;-79
2021/03/18 03:16:44;;;;;;;8.38;4.38;;;2.60;99.90;;;;;;2081036;28;20029;-80
2021/03/18 03:17:46;;;;;;;5.07;3.72;;;2.70;99.90;;;;;;2081803;28;20029;-80
2021/03/18 03:18:48;;;;;;;6.07;4.47;;;2.70;99.90;;;;;;2081725;28;20071;-79
2021/03/18 03:19:51;;;;;;;4.72;3.60;;;2.70;99.90;;;;;;2077882;28;20391;-80
2021/03/18 03:20:57;;;;;;;5.30;4.15;;;2.70;99.90;;;;;;2082481;28;20037;-80
2021/03/18 03:21:58;;;;;;;7.63;4.18;;;2.70;99.90;;;;;;2089708;28;20044;-79
2021/03/18 03:23:04;;;;;;;4.68;3.65;;;2.70;99.90;;;;;;2089105;28;20116;-78
2021/03/18 03:24:07;;;;;;;7.38;4.53;;;2.70;99.90;;;;;;2082044;28;20030;-78
2021/03/18 03:25:11;;;;;;;8.07;4.85;;;2.70;99.90;;;;;;2088151;28;20211;-78
2021/03/18 03:26:15;;;;;;;9.55;4.53;;;2.60;99.90;;;;;;2085960;28;20040;-78
2021/03/18 03:27:16;;;;;;;8.45;4.85;;;2.60;99.90;;;;;;2088196;28;20022;-78
2021/03/18 03:28:18;;;;;;;4.97;3.95;;;2.60;99.90;;;;;;2087950;28;20029;-79
2021/03/18 03:29:19;;;;;;;10.77;4.25;;;2.60;99.90;;;;;;2093218;28;20025;-78
2021/03/18 03:30:20;;;;;;;5.47;3.78;;;2.60;99.90;;;;;;2087653;28;20085;-78
2021/03/18 03:31:21;;;;;;;7.03;4.35;;;2.70;99.90;;;;;;2088511;28;20028;-78
2021/03/18 03:32:22;;;;;;;5.85;4.35;;;2.60;99.90;;;;;;2082591;28;20406;-78
2021/03/18 03:33:23;;;;;;;7.88;4.13;;;2.70;99.90;;;;;;2087980;28;20031;-78
2021/03/18 03:34:24;;;;;;;6.00;4.53;;;2.70;99.90;;;;;;2088468;28;20045;-78
2021/03/18 03:35:25;;;;;;;5.75;3.90;;;2.70;99.90;;;;;;2096390;28;20029;-78
2021/03/18 03:36:26;;;;;;;5.75;4.10;;;2.70;99.90;;;;;;2092478;28;20036;-78
2021/03/18 03:37:27;;;;;;;7.75;4.00;;;2.70;99.90;;;;;;2091448;28;20024;-77
2021/03/18 03:38:28;;;;;;;5.60;4.32;;;2.60;99.90;;;;;;2083849;28;20036;-77
2021/03/18 03:39:28;;;;;;;6.15;4.80;;;2.70;99.90;;;;;;2084919;28;20092;-78
2021/03/18 03:40:29;;;;;;;8.02;5.22;;;2.70;99.90;;;;;;2082272;28;20033;-78
2021/03/18 03:41:30;;;;;;;9.50;4.60;;;2.70;99.90;;;;;;2093738;28;20131;-78
2021/03/18 03:42:31;;;;;;;5.50;4.00;;;2.70;99.90;;;;;;2086416;28;20022;-78
2021/03/18 03:43:32;;;;;;;6.80;4.18;;;2.70;99.90;;;;;;2087196;28;20018;-78
2021/03/18 03:44:35;;;;;;;5.75;4.38;;;2.70;99.90;;;;;;2094837;28;20204;-78
2021/03/18 03:45:36;;;;;;;7.53;4.30;;;2.70;99.90;;;;;;2094952;28;20028;-78
2021/03/18 03:46:36;;;;;;;5.40;3.78;;;2.70;99.90;;;;;;2095054;28;20025;-78
2021/03/18 03:47:38;;;;;;;8.75;4.45;;;2.60;99.90;;;;;;2095224;28;20040;-78
2021/03/18 03:48:39;;;;;;;6.60;4.63;;;2.60;99.90;;;;;;2086830;28;20092;-78
2021/03/18 03:49:41;;;;;;;6.07;4.20;;;2.60;99.90;;;;;;2086961;28;20032;-78
2021/03/18 03:50:43;;;;;;;12.77;4.32;;;2.60;99.90;;;;;;2086878;28;20033;-78
2021/03/18 03:52:20;;;;;;;6.05;4.13;;;2.60;99.90;;;;;;2090767;28;20063;-79
2021/03/18 03:53:39;;;;;;;6.13;4.15;;;2.60;99.90;;;;;;2083267;28;20033;-79
2021/03/18 03:54:50;;;;;;;5.60;4.07;;;2.50;99.90;;;;;;2083347;28;20160;-79
2021/03/18 03:56:25;;;;;;;8.05;4.88;;;2.50;99.90;;;;;;2089826;28;20643;-80
2021/03/18 03:57:33;;;;;;;8.05;4.82;;;2.50;99.90;;;;;;2072992;28;20092;-80
2021/03/18 03:58:47;;;;;;;6.82;4.47;;;2.50;99.90;;;;;;2079667;28;20040;-79
2021/03/18 03:59:48;;;;;;;8.02;5.20;;;2.50;99.90;;;;;;2083617;28;20049;-79
2021/03/18 04:00:49;;;;;;;8.15;5.18;;;2.50;99.90;;;;;;2089997;28;20029;-80
2021/03/18 04:01:57;;;;;;;5.82;4.55;;;2.50;99.90;;;;;;2077223;28;20030;-80
2021/03/18 04:03:00;;;;;;;6.85;4.60;;;2.50;99.90;;;;;;2074671;28;20395;-79
2021/03/18 04:04:14;;;;;;;7.28;4.88;;;2.50;99.90;;;;;;2082170;28;20033;-79
2021/03/18 04:05:15;;;;;;;7.13;4.55;;;2.50;99.90;;;;;;2081164;28;20088;-80
2021/03/18 04:06:17;;;;;;;10.73;4.95;;;2.40;99.90;;;;;;2081706;28;20045;-79
2021/03/18 04:07:23;;;;;;;8.27;4.93;;;2.40;99.90;;;;;;2081013;28;20436;-81
2021/03/18 04:08:26;;;;;;;7.30;5.20;;;2.40;99.90;;;;;;2089511;28;20029;-79
2021/03/18 04:09:28;;;;;;;6.13;4.68;;;2.40;99.90;;;;;;2085559;28;20089;-78
2021/03/18 04:10:30;;;;;;;7.20;4.95;;;2.40;99.90;;;;;;2087803;28;20148;-78
2021/03/18 04:11:34;;;;;;;5.45;4.65;;;2.40;99.90;;;;;;2095267;28;20029;-78
2021/03/18 04:12:38;;;;;;;8.32;5.45;;;2.40;99.90;;;;;;2087497;28;20095;-78
2021/03/18 04:13:40;;;;;;;6.68;4.80;;;2.40;99.90;;;;;;2095609;28;20025;-78
2021/03/18 04:14:46;;;;;;;8.55;4.78;;;2.50;99.90;;;;;;2086900;28;20033;-78
2021/03/18 04:15:48;;;;;;;7.72;5.22;;;2.40;99.90;;;;;;2079909;28;20026;-78
2021/03/18 04:16:50;;;;;;;7.72;5.32;;;2.40;99.90;;;;;;2092851;28;20033;-79
2021/03/18 04:17:53;;;;;;;9.57;5.18;;;2.40;99.90;;;;;;2090044;28;20075;-78
2021/03/18 04:18:54;;;;;;;9.43;5.18;;;2.40;99.90;;;;;;2089433;28;20043;-78
2021/03/18 04:19:58;;;;;;;11.70;5.55;;;2.40;99.90;;;;;;2081104;28;20525;-78
2021/03/18 04:21:01;;;;;;;8.85;5.57;;;2.40;99.90;;;;;;2078006;28;20453;-79
2021/03/18 04:22:04;;;;;;;8.07;5.25;;;2.40;99.90;;;;;;2084240;28;20049;-78
2021/03/18 04:23:08;;;;;;;8.18;4.43;;;2.40;99.90;;;;;;2090610;28;20056;-78
2021/03/18 04:24:11;;;;;;;9.18;5.97;;;2.40;99.90;;;;;;2088096;28;20059;-78
2021/03/18 04:25:16;;;;;;;7.75;5.40;;;2.40;99.90;;;;;;2089381;28;20033;-78
2021/03/18 04:26:17;;;;;;;12.77;5.97;;;2.40;99.90;;;;;;2094169;28;20010;-77
2021/03/18 04:27:19;;;;;;;9.00;6.45;;;2.40;99.90;;;;;;2096695;28;20089;-77
2021/03/18 04:28:19;;;;;;;10.65;6.05;;;2.40;99.90;;;;;;2082667;28;20026;-77
2021/03/18 04:29:21;;;;;;;8.98;5.88;;;2.40;99.90;;;;;;2085396;28;20041;-78
2021/03/18 04:30:25;;;;;;;7.70;6.10;;;2.40;99.90;;;;;;2098501;28;20040;-78
2021/03/18 04:31:27;;;;;;;7.07;6.03;;;2.40;99.90;;;;;;2098443;28;20048;-78
2021/03/18 04:32:28;;;;;;;11.70;5.90;;;2.40;99.90;;;;;;2089241;28;20601;-78
2021/03/18 04:33:29;;;;;;;8.00;5.85;;;2.40;99.90;;;;;;2093553;28;20084;-78
2021/03/18 04:34:30;;;;;;;8.13;5.88;;;2.40;99.90;;;;;;2084511;28;20026;-79
2021/03/18 04:35:32;;;;;;;11.52;6.00;;;2.40;99.90;;;;;;2087181;28;20068;-78
2021/03/18 04:36:35;;;;;;;10.98;6.43;;;2.40;99.90;;;;;;2082363;28;20094;-78
2021/03/18 04:37:37;;;;;;;13.93;6.28;;;2.40;99.90;;;;;;2087138;28;20021;-78
2021/03/18 04:38:38;;;;;;;7.25;4.95;;;2.40;99.90;;;;;;2087436;28;20020;-78
2021/03/18 04:39:41;;;;;;;8.52;5.53;;;2.40;99.90;;;;;;2095465;28;20060;-78
2021/03/18 04:40:42;;;;;;;8.75;5.80;;;2.40;99.90;;;;;;2086277;28;20051;-79
2021/03/18 04:41:43;;;;;;;10.48;4.72;;;2.40;99.90;;;;;;2086975;28;20025;-78
2021/03/18 04:42:48;;;;;;;8.85;5.45;;;2.40;99.90;;;;;;2095481;28;20013;-77
2021/03/18 04:43:48;;;;;;;8.10;6.00;;;2.40;99.90;;;;;;2098876;28;20643;-78
2021/03/18 04:44:50;;;;;;;9.02;6.03;;;2.40;99.90;;;;;;2098740;28;20045;-77
2021/03/18 04:45:53;;;;;;;10.80;6.32;;;2.40;99.90;;;;;;2092397;28;20048;-77
2021/03/18 04:46:55;;;;;;;12.95;6.53;;;2.40;99.90;;;;;;2096428;28;20087;-78
2021/03/18 04:47:56;;;;;;;10.63;6.75;;;2.40;99.90;;;;;;2096436;28;20025;-78
2021/03/18 04:48:58;;;;;;;8.70;6.30;;;2.40;99.90;;;;;;2096380;28;20029;-78
2021/03/18 04:50:02;;;;;;;10.95;6.53;;;2.40;99.90;;;;;;2090784;28;20014;-78
2021/03/18 04:51:08;;;;;;;9.88;6.03;;;2.40;99.90;;;;;;2098694;28;20009;-78
2021/03/18 04:52:14;;;;;;;12.57;6.35;;;2.40;99.90;;;;;;2098236;28;20013;-77
2021/03/18 04:53:18;;;;;;;9.10;6.63;;;2.40;99.90;;;;;;2088724;28;20393;-79
2021/03/18 04:54:19;;;;;;;11.90;6.53;;;2.40;99.90;;;;;;2081212;28;20036;-79
2021/03/18 04:55:23;;;;;;;9.73;6.43;;;2.40;99.90;;;;;;2088920;28;20033;-77
2021/03/18 04:56:25;;;;;;;12.05;7.03;;;2.40;99.90;;;;;;2090825;28;20037;-78
2021/03/18 04:57:27;;;;;;;9.48;7.38;;;2.40;99.90;;;;;;2090123;28;20017;-78
2021/03/18 04:58:29;;;;;;;12.75;6.95;;;2.40;99.90;;;;;;2095004;28;20037;-77
2021/03/18 04:59:31;;;;;;;10.25;6.47;;;2.40;99.90;;;;;;2098809;28;20028;-78
2021/03/18 05:00:33;;;;;;;10.27;6.93;;;2.40;99.90;;;;;;2097861;28;20017;-78
2021/03/18 05:01:35;;;;;;;8.95;6.50;;;2.40;99.90;;;;;;2098849;28;20050;-77
2021/03/18 05:02:40;;;;;;;17.20;7.57;;;2.40;99.90;;;;;;2098056;28;20047;-77
2021/03/18 05:03:43;;;;;;;11.55;7.50;;;2.40;99.90;;;;;;2097985;28;20044;-78
2021/03/18 05:04:44;;;;;;;10.90;7.55;;;2.40;99.90;;;;;;2098393;28;20024;-77
2021/03/18 05:05:46;;;;;;;17.75;7.72;;;2.40;99.90;;;;;;2098968;28;20017;-77
2021/03/18 05:06:49;;;;;;;12.43;7.35;;;2.40;99.90;;;;;;2097683;28;20017;-77
2021/03/18 05:07:51;;;;;;;13.35;7.05;;;2.50;99.90;;;;;;2098855;28;20020;-77
2021/03/18 05:08:54;;;;;;;12.13;7.05;;;2.40;99.90;;;;;;2094689;28;20021;-78
2021/03/18 05:09:55;;;;;;;10.60;7.32;;;2.50;99.90;;;;;;2095246;28;20116;-78
2021/03/18 05:10:56;;;;;;;14.35;7.72;;;2.50;99.90;;;;;;2084105;28;20649;-78
2021/03/18 05:11:57;;;;;;;11.27;7.60;;;2.50;99.90;;;;;;2078518;28;20047;-79
2021/03/18 05:13:03;;;;;;;11.93;7.22;;;2.50;99.90;;;;;;2075334;28;20022;-78
2021/03/18 05:14:07;;;;;;;10.80;6.80;;;2.50;99.90;;;;;;2088223;28;20017;-79
2021/03/18 05:15:08;;;;;;;11.77;6.53;;;2.50;99.90;;;;;;2090385;28;20021;-77
2021/03/18 05:16:09;;;;;;;10.95;7.00;;;2.50;99.90;;;;;;2092756;28;20021;-77
2021/03/18 05:17:10;;;;;;;10.35;6.60;;;2.50;99.90;;;;;;2090066;28;20021;-78
2021/03/18 05:18:13;;;;;;;10.63;7.13;;;2.50;99.90;;;;;;2089485;28;20016;-79
2021/03/18 05:19:15;;;;;;;12.48;7.47;;;2.50;99.90;;;;;;2094036;28;20104;-79
2021/03/18 05:20:18;;;;;;;10.90;7.50;;;2.50;99.90;;;;;;2086819;28;20092;-78
2021/03/18 05:21:19;;;;;;;15.02;7.03;;;2.50;99.90;;;;;;2086834;28;20045;-78
2021/03/18 05:22:21;;;;;;;12.40;7.30;;;2.50;99.90;;;;;;2087459;28;20014;-79
2021/03/18 05:23:25;;;;;;;13.85;8.65;;;2.60;99.90;;;;;;2094466;28;20026;-78
2021/03/18 05:24:27;;;;;;;9.70;6.57;;;2.60;99.90;;;;;;2095781;28;20056;-78
2021/03/18 05:25:30;;;;;;;13.93;8.15;;;2.60;99.90;;;;;;2095562;28;20497;-79
2021/03/18 05:26:31;;;;;;;11.88;7.32;;;2.60;99.90;;;;;;2089866;28;20021;-79
2021/03/18 05:27:31;;;;;;;15.82;7.88;;;2.50;99.90;;;;;;2080281;28;20544;-79
2021/03/18 05:28:35;;;;;;;17.17;8.35;;;2.60;99.90;;;;;;2073956;28;20029;-78
2021/03/18 05:29:36;;;;;;;13.48;8.48;;;2.60;99.90;;;;;;2090554;28;20037;-78
2021/03/18 05:30:37;;;;;;;13.75;8.70;;;2.60;99.90;;;;;;2087761;28;20032;-78
2021/03/18 05:31:38;;;;;;;12.80;7.60;;;2.60;99.90;;;;;;2097628;28;20024;-81
2021/03/18 05:32:39;;;;;;;9.65;7.38;;;2.60;99.90;;;;;;2098205;28;20033;-79
2021/03/18 05:33:40;;;;;;;12.45;7.75;;;2.60;99.90;;;;;;2090019;28;20009;-79
2021/03/18 05:34:41;;;;;;;22.05;7.88;;;2.60;99.90;;;;;;2098406;28;20025;-78
2021/03/18 05:35:44;;;;;;;11.73;7.60;;;2.60;99.90;;;;;;2098211;28;20041;-78
2021/03/18 05:36:44;;;;;;;19.20;8.00;;;2.60;99.90;;;;;;2097499;28;20240;-77